Lincolnville, Kansas
Current Conditions -  °F | °C
As of 1:35 PM on Friday 24 Oct 2014 (Local Time) from KEWK Reporting Station
Clear Clear  
Wind Chill: 73°   Ceiling: Unl
Heat Index: 73°   Visibility: 10mi
Dew Point: 61°   Wind: 14mph
Humidity: 65%   Direction: 220°SW
Pressure: 30.05"   Gusts: NA
Location:  38.49°N, 96.96°W
Report Text: KEWK 241835Z AUTO 22012KT 10SM CLR 23/16 A3005 RMK AO1
Loading
Personal Weather Stations






























Interactive Weather Map New forecast layout! Learn more

10-Day Weather Forecast

Advertisements
Track Severe Weather on mobile